Terminal Aerodrome Forecast
Issued by NWS Charleston, WV

Current Version | Previous Version | Text Only | Print | Product List | Glossary Off
Versions: 1 2 3 4 5 6 7 8 9 10 11 12 13 14 15 16 17 18 19 20 21 22 23

078
FTUS41 KRLX 170846 AAA
TAFHTS
TAF AMD
KHTS 170846Z 1709/1806 VRB03KT P6SM OVC080
     FM171000 19005KT P6SM SCT200
     FM171700 24008KT P6SM SKC=

USA.gov is the U.S. government's official web portal to all federal, state and local government web resources and services.